sensor_id;sensor_type;location;lat;lon;timestamp;P1;durP1;ratioP1;P2;durP2;ratioP2
31754;SDS011;18325;52.018;4.726;2024-02-28T00:01:37;11.97;;;4.10;;
31754;SDS011;18325;52.018;4.726;2024-02-28T00:04:04;7.13;;;4.30;;
31754;SDS011;18325;52.018;4.726;2024-02-28T00:06:31;5.63;;;4.07;;
31754;SDS011;18325;52.018;4.726;2024-02-28T00:08:58;4.20;;;3.47;;
31754;SDS011;18325;52.018;4.726;2024-02-28T00:11:24;6.13;;;3.50;;
31754;SDS011;18325;52.018;4.726;2024-02-28T00:13:51;8.53;;;3.60;;
31754;SDS011;18325;52.018;4.726;2024-02-28T00:16:18;5.00;;;3.80;;
31754;SDS011;18325;52.018;4.726;2024-02-28T00:18:47;6.47;;;4.03;;
31754;SDS011;18325;52.018;4.726;2024-02-28T00:21:15;8.47;;;3.60;;
31754;SDS011;18325;52.018;4.726;2024-02-28T00:23:41;7.73;;;4.10;;
31754;SDS011;18325;52.018;4.726;2024-02-28T00:26:08;7.90;;;3.63;;
31754;SDS011;18325;52.018;4.726;2024-02-28T00:28:34;6.40;;;3.57;;
31754;SDS011;18325;52.018;4.726;2024-02-28T00:31:01;4.57;;;3.47;;
31754;SDS011;18325;52.018;4.726;2024-02-28T00:33:28;4.87;;;3.50;;
31754;SDS011;18325;52.018;4.726;2024-02-28T00:35:55;4.30;;;3.30;;
31754;SDS011;18325;52.018;4.726;2024-02-28T00:38:23;5.00;;;3.37;;
31754;SDS011;18325;52.018;4.726;2024-02-28T00:40:49;4.10;;;3.10;;
31754;SDS011;18325;52.018;4.726;2024-02-28T00:43:16;4.97;;;3.10;;
31754;SDS011;18325;52.018;4.726;2024-02-28T00:45:42;8.10;;;3.57;;
31754;SDS011;18325;52.018;4.726;2024-02-28T00:48:09;6.47;;;3.40;;
31754;SDS011;18325;52.018;4.726;2024-02-28T00:50:36;4.40;;;3.10;;
31754;SDS011;18325;52.018;4.726;2024-02-28T00:53:04;6.70;;;3.50;;
31754;SDS011;18325;52.018;4.726;2024-02-28T00:55:32;4.97;;;3.50;;
31754;SDS011;18325;52.018;4.726;2024-02-28T00:57:58;5.53;;;3.60;;
31754;SDS011;18325;52.018;4.726;2024-02-28T01:00:25;5.97;;;3.03;;
31754;SDS011;18325;52.018;4.726;2024-02-28T01:02:51;7.93;;;3.30;;
31754;SDS011;18325;52.018;4.726;2024-02-28T01:05:18;3.27;;;2.60;;
31754;SDS011;18325;52.018;4.726;2024-02-28T01:07:44;6.97;;;3.40;;
31754;SDS011;18325;52.018;4.726;2024-02-28T01:10:11;4.87;;;2.83;;
31754;SDS011;18325;52.018;4.726;2024-02-28T01:12:38;4.87;;;3.33;;
31754;SDS011;18325;52.018;4.726;2024-02-28T01:15:05;6.07;;;2.97;;
31754;SDS011;18325;52.018;4.726;2024-02-28T01:17:33;6.37;;;3.47;;
31754;SDS011;18325;52.018;4.726;2024-02-28T01:20:00;4.53;;;3.23;;
31754;SDS011;18325;52.018;4.726;2024-02-28T01:22:29;7.43;;;3.40;;
31754;SDS011;18325;52.018;4.726;2024-02-28T01:24:55;5.30;;;3.30;;
31754;SDS011;18325;52.018;4.726;2024-02-28T01:27:22;5.40;;;2.87;;
31754;SDS011;18325;52.018;4.726;2024-02-28T01:29:50;4.67;;;3.13;;
31754;SDS011;18325;52.018;4.726;2024-02-28T01:32:18;4.07;;;3.23;;
31754;SDS011;18325;52.018;4.726;2024-02-28T01:34:45;4.17;;;3.17;;
31754;SDS011;18325;52.018;4.726;2024-02-28T01:37:11;4.00;;;2.83;;
31754;SDS011;18325;52.018;4.726;2024-02-28T01:39:38;7.70;;;3.40;;
31754;SDS011;18325;52.018;4.726;2024-02-28T01:42:04;4.50;;;3.10;;
31754;SDS011;18325;52.018;4.726;2024-02-28T01:44:31;4.17;;;3.27;;
31754;SDS011;18325;52.018;4.726;2024-02-28T01:47:01;5.43;;;3.40;;
31754;SDS011;18325;52.018;4.726;2024-02-28T01:49:28;5.77;;;3.40;;
31754;SDS011;18325;52.018;4.726;2024-02-28T01:51:55;6.43;;;3.50;;
31754;SDS011;18325;52.018;4.726;2024-02-28T01:54:22;6.50;;;3.63;;
31754;SDS011;18325;52.018;4.726;2024-02-28T01:56:49;4.73;;;3.47;;
31754;SDS011;18325;52.018;4.726;2024-02-28T01:59:15;4.40;;;3.13;;
31754;SDS011;18325;52.018;4.726;2024-02-28T02:01:43;4.53;;;3.00;;
31754;SDS011;18325;52.018;4.726;2024-02-28T02:04:11;9.13;;;3.03;;
31754;SDS011;18325;52.018;4.726;2024-02-28T02:06:38;6.20;;;3.73;;
31754;SDS011;18325;52.018;4.726;2024-02-28T02:09:08;5.87;;;3.00;;
31754;SDS011;18325;52.018;4.726;2024-02-28T02:11:34;7.27;;;3.93;;
31754;SDS011;18325;52.018;4.726;2024-02-28T02:14:01;5.80;;;3.43;;
31754;SDS011;18325;52.018;4.726;2024-02-28T02:16:28;6.37;;;3.67;;
31754;SDS011;18325;52.018;4.726;2024-02-28T02:18:55;6.77;;;3.80;;
31754;SDS011;18325;52.018;4.726;2024-02-28T02:21:24;5.10;;;3.30;;
31754;SDS011;18325;52.018;4.726;2024-02-28T02:23:55;6.43;;;3.50;;
31754;SDS011;18325;52.018;4.726;2024-02-28T02:26:22;8.10;;;3.57;;
31754;SDS011;18325;52.018;4.726;2024-02-28T02:28:48;5.97;;;3.47;;
31754;SDS011;18325;52.018;4.726;2024-02-28T02:31:15;6.77;;;3.73;;
31754;SDS011;18325;52.018;4.726;2024-02-28T02:33:42;6.83;;;4.23;;
31754;SDS011;18325;52.018;4.726;2024-02-28T02:36:08;6.17;;;3.73;;
31754;SDS011;18325;52.018;4.726;2024-02-28T02:38:35;7.97;;;4.63;;
31754;SDS011;18325;52.018;4.726;2024-02-28T02:41:03;8.57;;;4.07;;
31754;SDS011;18325;52.018;4.726;2024-02-28T02:43:29;5.63;;;3.47;;
31754;SDS011;18325;52.018;4.726;2024-02-28T02:45:56;4.97;;;3.90;;
31754;SDS011;18325;52.018;4.726;2024-02-28T02:48:22;7.07;;;3.43;;
31754;SDS011;18325;52.018;4.726;2024-02-28T02:50:49;5.07;;;3.37;;
31754;SDS011;18325;52.018;4.726;2024-02-28T02:53:15;6.37;;;3.97;;
31754;SDS011;18325;52.018;4.726;2024-02-28T02:55:42;6.63;;;4.33;;
31754;SDS011;18325;52.018;4.726;2024-02-28T02:58:09;4.93;;;3.83;;
31754;SDS011;18325;52.018;4.726;2024-02-28T03:00:36;7.97;;;4.13;;
31754;SDS011;18325;52.018;4.726;2024-02-28T03:03:02;8.33;;;4.57;;
31754;SDS011;18325;52.018;4.726;2024-02-28T03:05:30;7.67;;;5.00;;
31754;SDS011;18325;52.018;4.726;2024-02-28T03:07:57;9.80;;;4.37;;
31754;SDS011;18325;52.018;4.726;2024-02-28T03:10:23;9.40;;;5.40;;
31754;SDS011;18325;52.018;4.726;2024-02-28T03:12:50;8.93;;;5.07;;
31754;SDS011;18325;52.018;4.726;2024-02-28T03:15:18;9.03;;;5.00;;
31754;SDS011;18325;52.018;4.726;2024-02-28T03:17:44;9.67;;;5.43;;
31754;SDS011;18325;52.018;4.726;2024-02-28T03:20:11;6.60;;;4.30;;
31754;SDS011;18325;52.018;4.726;2024-02-28T03:22:38;7.63;;;4.90;;
31754;SDS011;18325;52.018;4.726;2024-02-28T03:25:05;11.67;;;5.73;;
31754;SDS011;18325;52.018;4.726;2024-02-28T03:27:32;7.50;;;4.67;;
31754;SDS011;18325;52.018;4.726;2024-02-28T03:29:59;7.40;;;5.23;;
31754;SDS011;18325;52.018;4.726;2024-02-28T03:32:28;10.23;;;4.80;;
31754;SDS011;18325;52.018;4.726;2024-02-28T03:34:54;12.37;;;5.40;;
31754;SDS011;18325;52.018;4.726;2024-02-28T03:37:21;11.70;;;5.97;;
31754;SDS011;18325;52.018;4.726;2024-02-28T03:39:47;8.20;;;5.13;;
31754;SDS011;18325;52.018;4.726;2024-02-28T03:42:14;10.53;;;6.47;;
31754;SDS011;18325;52.018;4.726;2024-02-28T03:44:40;12.47;;;5.73;;
31754;SDS011;18325;52.018;4.726;2024-02-28T03:47:07;10.90;;;6.13;;
31754;SDS011;18325;52.018;4.726;2024-02-28T03:49:34;12.97;;;6.07;;
31754;SDS011;18325;52.018;4.726;2024-02-28T03:52:01;9.60;;;5.23;;
31754;SDS011;18325;52.018;4.726;2024-02-28T03:54:30;10.17;;;6.17;;
31754;SDS011;18325;52.018;4.726;2024-02-28T03:56:56;8.10;;;5.13;;
31754;SDS011;18325;52.018;4.726;2024-02-28T03:59:23;14.10;;;5.47;;
31754;SDS011;18325;52.018;4.726;2024-02-28T04:01:50;13.53;;;5.80;;
31754;SDS011;18325;52.018;4.726;2024-02-28T04:04:16;10.53;;;6.13;;
31754;SDS011;18325;52.018;4.726;2024-02-28T04:06:44;10.07;;;6.20;;
31754;SDS011;18325;52.018;4.726;2024-02-28T04:09:11;11.87;;;6.73;;
31754;SDS011;18325;52.018;4.726;2024-02-28T04:11:37;11.53;;;6.23;;
31754;SDS011;18325;52.018;4.726;2024-02-28T04:14:04;10.30;;;5.47;;
31754;SDS011;18325;52.018;4.726;2024-02-28T04:16:30;9.03;;;6.00;;
31754;SDS011;18325;52.018;4.726;2024-02-28T04:18:57;11.60;;;6.67;;
31754;SDS011;18325;52.018;4.726;2024-02-28T04:21:23;10.67;;;6.27;;
31754;SDS011;18325;52.018;4.726;2024-02-28T04:23:51;11.93;;;6.37;;
31754;SDS011;18325;52.018;4.726;2024-02-28T04:26:17;13.40;;;6.67;;
31754;SDS011;18325;52.018;4.726;2024-02-28T04:28:44;11.97;;;6.50;;
31754;SDS011;18325;52.018;4.726;2024-02-28T04:31:10;11.60;;;6.77;;
31754;SDS011;18325;52.018;4.726;2024-02-28T04:33:37;11.47;;;6.60;;
31754;SDS011;18325;52.018;4.726;2024-02-28T04:36:03;16.70;;;6.63;;
31754;SDS011;18325;52.018;4.726;2024-02-28T04:38:31;14.10;;;6.93;;
31754;SDS011;18325;52.018;4.726;2024-02-28T04:40:59;11.77;;;7.17;;
31754;SDS011;18325;52.018;4.726;2024-02-28T04:43:25;10.40;;;6.67;;
31754;SDS011;18325;52.018;4.726;2024-02-28T04:45:52;15.87;;;7.10;;
31754;SDS011;18325;52.018;4.726;2024-02-28T04:48:18;14.33;;;6.37;;
31754;SDS011;18325;52.018;4.726;2024-02-28T04:50:44;13.20;;;6.97;;
31754;SDS011;18325;52.018;4.726;2024-02-28T04:53:11;9.97;;;6.20;;
31754;SDS011;18325;52.018;4.726;2024-02-28T04:55:37;10.40;;;6.77;;
31754;SDS011;18325;52.018;4.726;2024-02-28T04:58:05;14.40;;;7.50;;
31754;SDS011;18325;52.018;4.726;2024-02-28T05:00:32;15.20;;;7.90;;
31754;SDS011;18325;52.018;4.726;2024-02-28T05:02:58;13.40;;;7.17;;
31754;SDS011;18325;52.018;4.726;2024-02-28T05:05:25;12.10;;;5.87;;
31754;SDS011;18325;52.018;4.726;2024-02-28T05:07:51;10.87;;;7.00;;
31754;SDS011;18325;52.018;4.726;2024-02-28T05:10:18;11.30;;;7.13;;
31754;SDS011;18325;52.018;4.726;2024-02-28T05:12:44;10.30;;;6.30;;
31754;SDS011;18325;52.018;4.726;2024-02-28T05:15:12;12.20;;;7.00;;
31754;SDS011;18325;52.018;4.726;2024-02-28T05:17:39;13.43;;;8.13;;
31754;SDS011;18325;52.018;4.726;2024-02-28T05:20:06;13.80;;;7.33;;
31754;SDS011;18325;52.018;4.726;2024-02-28T05:22:34;14.30;;;7.60;;
31754;SDS011;18325;52.018;4.726;2024-02-28T05:25:00;14.30;;;7.33;;
31754;SDS011;18325;52.018;4.726;2024-02-28T05:27:27;12.43;;;8.33;;
31754;SDS011;18325;52.018;4.726;2024-02-28T05:29:53;16.33;;;7.83;;
31754;SDS011;18325;52.018;4.726;2024-02-28T05:32:21;14.63;;;7.90;;
31754;SDS011;18325;52.018;4.726;2024-02-28T05:34:48;16.73;;;8.17;;
31754;SDS011;18325;52.018;4.726;2024-02-28T05:37:15;14.67;;;8.10;;
31754;SDS011;18325;52.018;4.726;2024-02-28T05:39:42;11.93;;;7.73;;
31754;SDS011;18325;52.018;4.726;2024-02-28T05:42:09;17.40;;;7.50;;
31754;SDS011;18325;52.018;4.726;2024-02-28T05:44:35;18.43;;;8.83;;
31754;SDS011;18325;52.018;4.726;2024-02-28T05:47:02;18.67;;;8.73;;
31754;SDS011;18325;52.018;4.726;2024-02-28T05:49:30;15.87;;;8.63;;
31754;SDS011;18325;52.018;4.726;2024-02-28T05:51:56;15.73;;;8.50;;
31754;SDS011;18325;52.018;4.726;2024-02-28T05:54:23;18.20;;;8.87;;
31754;SDS011;18325;52.018;4.726;2024-02-28T05:56:49;15.87;;;8.90;;
31754;SDS011;18325;52.018;4.726;2024-02-28T05:59:15;13.47;;;8.13;;
31754;SDS011;18325;52.018;4.726;2024-02-28T06:01:42;15.40;;;7.53;;
31754;SDS011;18325;52.018;4.726;2024-02-28T06:04:10;16.10;;;8.37;;
31754;SDS011;18325;52.018;4.726;2024-02-28T06:06:39;13.73;;;8.33;;
31754;SDS011;18325;52.018;4.726;2024-02-28T06:09:05;20.73;;;9.20;;
31754;SDS011;18325;52.018;4.726;2024-02-28T06:11:32;12.97;;;8.60;;
31754;SDS011;18325;52.018;4.726;2024-02-28T06:13:59;13.77;;;8.43;;
31754;SDS011;18325;52.018;4.726;2024-02-28T06:16:27;13.43;;;8.73;;
31754;SDS011;18325;52.018;4.726;2024-02-28T06:18:54;17.57;;;8.30;;
31754;SDS011;18325;52.018;4.726;2024-02-28T06:21:21;15.53;;;9.67;;
31754;SDS011;18325;52.018;4.726;2024-02-28T06:23:49;17.93;;;10.37;;
31754;SDS011;18325;52.018;4.726;2024-02-28T06:26:16;14.77;;;8.77;;
31754;SDS011;18325;52.018;4.726;2024-02-28T06:28:42;13.77;;;9.10;;
31754;SDS011;18325;52.018;4.726;2024-02-28T06:31:16;17.27;;;9.50;;
31754;SDS011;18325;52.018;4.726;2024-02-28T06:33:43;11.77;;;8.60;;
31754;SDS011;18325;52.018;4.726;2024-02-28T06:36:09;14.03;;;8.47;;
31754;SDS011;18325;52.018;4.726;2024-02-28T06:38:36;17.60;;;9.47;;
31754;SDS011;18325;52.018;4.726;2024-02-28T06:41:04;15.50;;;7.57;;
31754;SDS011;18325;52.018;4.726;2024-02-28T06:43:32;15.47;;;9.20;;
31754;SDS011;18325;52.018;4.726;2024-02-28T06:45:59;15.93;;;9.93;;
31754;SDS011;18325;52.018;4.726;2024-02-28T06:48:26;15.33;;;8.93;;
31754;SDS011;18325;52.018;4.726;2024-02-28T06:50:53;15.70;;;9.97;;
31754;SDS011;18325;52.018;4.726;2024-02-28T06:53:20;15.63;;;9.23;;
31754;SDS011;18325;52.018;4.726;2024-02-28T06:55:46;12.03;;;8.57;;
31754;SDS011;18325;52.018;4.726;2024-02-28T06:58:15;15.67;;;9.67;;
31754;SDS011;18325;52.018;4.726;2024-02-28T07:00:41;17.17;;;8.60;;
31754;SDS011;18325;52.018;4.726;2024-02-28T07:03:08;14.50;;;9.37;;
31754;SDS011;18325;52.018;4.726;2024-02-28T07:05:35;16.27;;;9.63;;
31754;SDS011;18325;52.018;4.726;2024-02-28T07:08:01;14.93;;;8.30;;
31754;SDS011;18325;52.018;4.726;2024-02-28T07:10:28;15.90;;;8.63;;
31754;SDS011;18325;52.018;4.726;2024-02-28T07:12:55;17.90;;;8.67;;
31754;SDS011;18325;52.018;4.726;2024-02-28T07:15:23;15.93;;;9.47;;
31754;SDS011;18325;52.018;4.726;2024-02-28T07:17:49;12.50;;;8.50;;
31754;SDS011;18325;52.018;4.726;2024-02-28T07:20:16;16.57;;;9.37;;
31754;SDS011;18325;52.018;4.726;2024-02-28T07:22:43;15.27;;;8.93;;
31754;SDS011;18325;52.018;4.726;2024-02-28T07:25:09;16.40;;;8.97;;
31754;SDS011;18325;52.018;4.726;2024-02-28T07:27:36;15.20;;;10.13;;
31754;SDS011;18325;52.018;4.726;2024-02-28T07:30:03;20.20;;;8.70;;
31754;SDS011;18325;52.018;4.726;2024-02-28T07:32:31;14.53;;;9.03;;
31754;SDS011;18325;52.018;4.726;2024-02-28T07:35:00;14.33;;;8.60;;
31754;SDS011;18325;52.018;4.726;2024-02-28T07:37:26;16.43;;;9.23;;
31754;SDS011;18325;52.018;4.726;2024-02-28T07:39:53;16.83;;;9.10;;
31754;SDS011;18325;52.018;4.726;2024-02-28T07:42:19;17.07;;;8.73;;
31754;SDS011;18325;52.018;4.726;2024-02-28T07:44:46;19.13;;;9.63;;
31754;SDS011;18325;52.018;4.726;2024-02-28T07:47:12;18.43;;;9.37;;
31754;SDS011;18325;52.018;4.726;2024-02-28T07:49:41;14.97;;;8.73;;
31754;SDS011;18325;52.018;4.726;2024-02-28T07:52:07;15.57;;;8.77;;
31754;SDS011;18325;52.018;4.726;2024-02-28T07:54:34;15.37;;;9.43;;
31754;SDS011;18325;52.018;4.726;2024-02-28T07:57:01;19.47;;;10.60;;
31754;SDS011;18325;52.018;4.726;2024-02-28T07:59:28;17.27;;;9.47;;
31754;SDS011;18325;52.018;4.726;2024-02-28T08:01:54;12.80;;;8.33;;
31754;SDS011;18325;52.018;4.726;2024-02-28T08:04:21;18.67;;;9.27;;
31754;SDS011;18325;52.018;4.726;2024-02-28T08:06:49;16.47;;;9.33;;
31754;SDS011;18325;52.018;4.726;2024-02-28T08:09:16;17.73;;;9.53;;
31754;SDS011;18325;52.018;4.726;2024-02-28T08:11:42;14.90;;;9.40;;
31754;SDS011;18325;52.018;4.726;2024-02-28T08:14:09;17.83;;;9.43;;
31754;SDS011;18325;52.018;4.726;2024-02-28T08:16:35;15.73;;;9.17;;
31754;SDS011;18325;52.018;4.726;2024-02-28T08:19:02;17.30;;;10.13;;
31754;SDS011;18325;52.018;4.726;2024-02-28T08:21:28;16.83;;;10.23;;
31754;SDS011;18325;52.018;4.726;2024-02-28T08:23:56;26.20;;;11.30;;
31754;SDS011;18325;52.018;4.726;2024-02-28T08:26:23;15.33;;;9.43;;
31754;SDS011;18325;52.018;4.726;2024-02-28T08:28:49;18.67;;;9.90;;
31754;SDS011;18325;52.018;4.726;2024-02-28T08:31:16;17.07;;;11.53;;
31754;SDS011;18325;52.018;4.726;2024-02-28T08:33:43;17.73;;;9.23;;
31754;SDS011;18325;52.018;4.726;2024-02-28T08:36:09;16.90;;;10.30;;
31754;SDS011;18325;52.018;4.726;2024-02-28T08:38:36;22.27;;;9.77;;
31754;SDS011;18325;52.018;4.726;2024-02-28T08:41:05;17.47;;;10.50;;
31754;SDS011;18325;52.018;4.726;2024-02-28T08:43:32;17.07;;;10.27;;
31754;SDS011;18325;52.018;4.726;2024-02-28T08:45:58;17.07;;;10.23;;
31754;SDS011;18325;52.018;4.726;2024-02-28T08:48:25;18.00;;;11.00;;
31754;SDS011;18325;52.018;4.726;2024-02-28T08:50:51;21.00;;;10.07;;
31754;SDS011;18325;52.018;4.726;2024-02-28T08:53:18;17.43;;;10.10;;
31754;SDS011;18325;52.018;4.726;2024-02-28T08:55:44;19.70;;;10.20;;
31754;SDS011;18325;52.018;4.726;2024-02-28T08:58:13;22.93;;;11.37;;
31754;SDS011;18325;52.018;4.726;2024-02-28T09:00:40;22.67;;;11.07;;
31754;SDS011;18325;52.018;4.726;2024-02-28T09:03:06;20.40;;;10.50;;
31754;SDS011;18325;52.018;4.726;2024-02-28T09:05:33;22.80;;;11.50;;
31754;SDS011;18325;52.018;4.726;2024-02-28T09:08:00;18.87;;;11.10;;
31754;SDS011;18325;52.018;4.726;2024-02-28T09:10:27;21.43;;;10.63;;
31754;SDS011;18325;52.018;4.726;2024-02-28T09:12:56;20.10;;;10.97;;
31754;SDS011;18325;52.018;4.726;2024-02-28T09:15:24;17.83;;;11.53;;
31754;SDS011;18325;52.018;4.726;2024-02-28T09:17:50;16.63;;;10.60;;
31754;SDS011;18325;52.018;4.726;2024-02-28T09:20:17;18.10;;;10.70;;
31754;SDS011;18325;52.018;4.726;2024-02-28T09:22:43;19.27;;;11.00;;
31754;SDS011;18325;52.018;4.726;2024-02-28T09:25:10;19.00;;;10.73;;
31754;SDS011;18325;52.018;4.726;2024-02-28T09:27:37;23.77;;;12.10;;
31754;SDS011;18325;52.018;4.726;2024-02-28T09:30:04;30.13;;;11.40;;
31754;SDS011;18325;52.018;4.726;2024-02-28T09:32:33;26.07;;;11.67;;
31754;SDS011;18325;52.018;4.726;2024-02-28T09:34:59;23.37;;;12.13;;
31754;SDS011;18325;52.018;4.726;2024-02-28T09:37:26;19.67;;;10.77;;
31754;SDS011;18325;52.018;4.726;2024-02-28T09:39:54;21.10;;;11.10;;
31754;SDS011;18325;52.018;4.726;2024-02-28T09:42:20;23.40;;;10.83;;
31754;SDS011;18325;52.018;4.726;2024-02-28T09:44:47;22.47;;;12.90;;
31754;SDS011;18325;52.018;4.726;2024-02-28T09:47:14;20.63;;;11.60;;
31754;SDS011;18325;52.018;4.726;2024-02-28T09:49:42;22.47;;;12.03;;
31754;SDS011;18325;52.018;4.726;2024-02-28T09:52:11;23.40;;;12.57;;
31754;SDS011;18325;52.018;4.726;2024-02-28T09:54:38;24.80;;;12.53;;
31754;SDS011;18325;52.018;4.726;2024-02-28T09:57:04;29.90;;;12.83;;
31754;SDS011;18325;52.018;4.726;2024-02-28T09:59:31;25.57;;;12.93;;
31754;SDS011;18325;52.018;4.726;2024-02-28T10:01:58;20.23;;;11.73;;
31754;SDS011;18325;52.018;4.726;2024-02-28T10:04:26;23.87;;;12.57;;
31754;SDS011;18325;52.018;4.726;2024-02-28T10:06:55;20.83;;;12.97;;
31754;SDS011;18325;52.018;4.726;2024-02-28T10:09:22;18.50;;;11.23;;
31754;SDS011;18325;52.018;4.726;2024-02-28T10:11:49;22.97;;;12.03;;
31754;SDS011;18325;52.018;4.726;2024-02-28T10:14:18;19.60;;;10.33;;
31754;SDS011;18325;52.018;4.726;2024-02-28T10:16:45;22.50;;;11.57;;
31754;SDS011;18325;52.018;4.726;2024-02-28T10:19:12;20.93;;;11.20;;
31754;SDS011;18325;52.018;4.726;2024-02-28T10:21:38;21.47;;;12.23;;
31754;SDS011;18325;52.018;4.726;2024-02-28T10:24:07;18.23;;;11.63;;
31754;SDS011;18325;52.018;4.726;2024-02-28T10:26:41;22.33;;;11.47;;
31754;SDS011;18325;52.018;4.726;2024-02-28T10:29:08;25.97;;;13.30;;
31754;SDS011;18325;52.018;4.726;2024-02-28T10:31:35;22.60;;;12.80;;
31754;SDS011;18325;52.018;4.726;2024-02-28T10:34:02;24.77;;;11.57;;
31754;SDS011;18325;52.018;4.726;2024-02-28T10:36:32;25.53;;;12.33;;
31754;SDS011;18325;52.018;4.726;2024-02-28T10:38:59;20.90;;;11.50;;
31754;SDS011;18325;52.018;4.726;2024-02-28T10:41:28;24.10;;;12.67;;
31754;SDS011;18325;52.018;4.726;2024-02-28T10:43:54;21.30;;;11.37;;
31754;SDS011;18325;52.018;4.726;2024-02-28T10:46:20;22.07;;;11.73;;
31754;SDS011;18325;52.018;4.726;2024-02-28T10:48:49;21.63;;;11.47;;
31754;SDS011;18325;52.018;4.726;2024-02-28T10:51:18;16.27;;;11.07;;
31754;SDS011;18325;52.018;4.726;2024-02-28T10:53:48;20.53;;;10.77;;
31754;SDS011;18325;52.018;4.726;2024-02-28T10:56:16;20.77;;;10.50;;
31754;SDS011;18325;52.018;4.726;2024-02-28T10:58:49;19.57;;;10.30;;
31754;SDS011;18325;52.018;4.726;2024-02-28T11:01:17;18.53;;;10.73;;
31754;SDS011;18325;52.018;4.726;2024-02-28T11:03:44;17.50;;;10.00;;
31754;SDS011;18325;52.018;4.726;2024-02-28T11:06:16;20.67;;;10.07;;
31754;SDS011;18325;52.018;4.726;2024-02-28T11:08:45;15.67;;;9.27;;
31754;SDS011;18325;52.018;4.726;2024-02-28T11:11:13;17.07;;;9.07;;
31754;SDS011;18325;52.018;4.726;2024-02-28T11:13:50;12.63;;;8.60;;
31754;SDS011;18325;52.018;4.726;2024-02-28T11:16:25;14.73;;;8.83;;
31754;SDS011;18325;52.018;4.726;2024-02-28T11:18:53;15.37;;;9.30;;
31754;SDS011;18325;52.018;4.726;2024-02-28T11:21:19;17.13;;;9.33;;
31754;SDS011;18325;52.018;4.726;2024-02-28T11:23:49;13.00;;;8.50;;
31754;SDS011;18325;52.018;4.726;2024-02-28T11:26:16;17.47;;;8.83;;
31754;SDS011;18325;52.018;4.726;2024-02-28T11:28:43;17.93;;;10.17;;
31754;SDS011;18325;52.018;4.726;2024-02-28T11:31:10;14.30;;;8.83;;
31754;SDS011;18325;52.018;4.726;2024-02-28T11:33:37;13.67;;;8.93;;
31754;SDS011;18325;52.018;4.726;2024-02-28T11:36:04;13.87;;;8.60;;
31754;SDS011;18325;52.018;4.726;2024-02-28T11:38:34;15.10;;;8.60;;
31754;SDS011;18325;52.018;4.726;2024-02-28T11:41:03;11.40;;;7.73;;
31754;SDS011;18325;52.018;4.726;2024-02-28T11:43:30;16.97;;;7.67;;
31754;SDS011;18325;52.018;4.726;2024-02-28T11:45:56;19.73;;;8.43;;
31754;SDS011;18325;52.018;4.726;2024-02-28T11:48:24;14.50;;;8.53;;
31754;SDS011;18325;52.018;4.726;2024-02-28T11:50:52;15.07;;;9.07;;
31754;SDS011;18325;52.018;4.726;2024-02-28T11:53:19;11.40;;;7.77;;
31754;SDS011;18325;52.018;4.726;2024-02-28T11:55:46;14.17;;;9.00;;
31754;SDS011;18325;52.018;4.726;2024-02-28T11:58:12;15.70;;;8.57;;
31754;SDS011;18325;52.018;4.726;2024-02-28T12:00:48;17.53;;;9.93;;
31754;SDS011;18325;52.018;4.726;2024-02-28T12:03:19;13.13;;;8.57;;
31754;SDS011;18325;52.018;4.726;2024-02-28T12:05:48;15.90;;;9.43;;
31754;SDS011;18325;52.018;4.726;2024-02-28T12:08:15;17.30;;;10.33;;
31754;SDS011;18325;52.018;4.726;2024-02-28T12:10:43;18.93;;;9.83;;
31754;SDS011;18325;52.018;4.726;2024-02-28T12:13:10;21.97;;;9.57;;
31754;SDS011;18325;52.018;4.726;2024-02-28T12:15:38;22.77;;;10.57;;
31754;SDS011;18325;52.018;4.726;2024-02-28T12:18:07;21.40;;;10.73;;
31754;SDS011;18325;52.018;4.726;2024-02-28T12:20:35;24.20;;;11.50;;
31754;SDS011;18325;52.018;4.726;2024-02-28T12:23:03;22.50;;;12.43;;
31754;SDS011;18325;52.018;4.726;2024-02-28T12:25:30;24.57;;;12.93;;
31754;SDS011;18325;52.018;4.726;2024-02-28T12:27:56;22.40;;;11.60;;
31754;SDS011;18325;52.018;4.726;2024-02-28T12:30:23;19.80;;;12.77;;
31754;SDS011;18325;52.018;4.726;2024-02-28T12:32:49;23.93;;;13.20;;
31754;SDS011;18325;52.018;4.726;2024-02-28T12:35:16;22.77;;;13.30;;
31754;SDS011;18325;52.018;4.726;2024-02-28T12:37:42;20.70;;;13.77;;
31754;SDS011;18325;52.018;4.726;2024-02-28T12:40:11;25.67;;;13.90;;
31754;SDS011;18325;52.018;4.726;2024-02-28T12:42:39;24.07;;;14.80;;
31754;SDS011;18325;52.018;4.726;2024-02-28T12:45:05;29.03;;;14.63;;
31754;SDS011;18325;52.018;4.726;2024-02-28T12:47:32;27.90;;;15.47;;
31754;SDS011;18325;52.018;4.726;2024-02-28T12:49:58;31.53;;;16.03;;
31754;SDS011;18325;52.018;4.726;2024-02-28T12:52:25;29.80;;;16.43;;
31754;SDS011;18325;52.018;4.726;2024-02-28T12:54:51;33.80;;;17.33;;
31754;SDS011;18325;52.018;4.726;2024-02-28T12:57:19;29.37;;;17.60;;
31754;SDS011;18325;52.018;4.726;2024-02-28T12:59:46;32.53;;;17.80;;
31754;SDS011;18325;52.018;4.726;2024-02-28T13:02:12;30.80;;;15.30;;
31754;SDS011;18325;52.018;4.726;2024-02-28T13:04:40;31.23;;;16.33;;
31754;SDS011;18325;52.018;4.726;2024-02-28T13:07:07;27.07;;;15.20;;
31754;SDS011;18325;52.018;4.726;2024-02-28T13:09:34;27.37;;;15.23;;
31754;SDS011;18325;52.018;4.726;2024-02-28T13:12:00;29.47;;;15.13;;
31754;SDS011;18325;52.018;4.726;2024-02-28T13:14:28;26.10;;;14.10;;
31754;SDS011;18325;52.018;4.726;2024-02-28T13:16:54;32.80;;;15.03;;
31754;SDS011;18325;52.018;4.726;2024-02-28T13:19:21;32.10;;;15.97;;
31754;SDS011;18325;52.018;4.726;2024-02-28T13:21:47;32.93;;;14.67;;
31754;SDS011;18325;52.018;4.726;2024-02-28T13:24:14;31.23;;;14.17;;
31754;SDS011;18325;52.018;4.726;2024-02-28T13:26:42;32.53;;;15.37;;
31754;SDS011;18325;52.018;4.726;2024-02-28T13:29:08;29.90;;;16.60;;
31754;SDS011;18325;52.018;4.726;2024-02-28T13:31:36;31.77;;;15.00;;
31754;SDS011;18325;52.018;4.726;2024-02-28T13:34:03;27.87;;;14.60;;
31754;SDS011;18325;52.018;4.726;2024-02-28T13:36:30;27.73;;;15.13;;
31754;SDS011;18325;52.018;4.726;2024-02-28T13:39:01;23.90;;;13.03;;
31754;SDS011;18325;52.018;4.726;2024-02-28T13:41:26;23.70;;;12.57;;
31754;SDS011;18325;52.018;4.726;2024-02-28T13:43:53;23.03;;;12.67;;
31754;SDS011;18325;52.018;4.726;2024-02-28T13:46:19;24.43;;;11.93;;
31754;SDS011;18325;52.018;4.726;2024-02-28T13:48:47;24.77;;;11.93;;
31754;SDS011;18325;52.018;4.726;2024-02-28T13:51:14;22.30;;;12.57;;
31754;SDS011;18325;52.018;4.726;2024-02-28T13:53:40;23.80;;;12.13;;
31754;SDS011;18325;52.018;4.726;2024-02-28T13:56:07;21.70;;;11.43;;
31754;SDS011;18325;52.018;4.726;2024-02-28T13:58:33;22.77;;;12.60;;
31754;SDS011;18325;52.018;4.726;2024-02-28T14:01:00;20.37;;;11.67;;
31754;SDS011;18325;52.018;4.726;2024-02-28T14:03:26;23.13;;;11.93;;
31754;SDS011;18325;52.018;4.726;2024-02-28T14:05:55;23.73;;;11.60;;
31754;SDS011;18325;52.018;4.726;2024-02-28T14:08:22;20.83;;;11.37;;
31754;SDS011;18325;52.018;4.726;2024-02-28T14:10:48;20.33;;;11.37;;
31754;SDS011;18325;52.018;4.726;2024-02-28T14:13:15;20.80;;;11.23;;
31754;SDS011;18325;52.018;4.726;2024-02-28T14:15:43;16.80;;;10.40;;
31754;SDS011;18325;52.018;4.726;2024-02-28T14:18:10;23.47;;;12.30;;
31754;SDS011;18325;52.018;4.726;2024-02-28T14:20:37;17.93;;;11.30;;
31754;SDS011;18325;52.018;4.726;2024-02-28T14:23:05;22.33;;;11.73;;
31754;SDS011;18325;52.018;4.726;2024-02-28T14:25:32;20.60;;;12.80;;
31754;SDS011;18325;52.018;4.726;2024-02-28T14:27:58;21.20;;;12.27;;
31754;SDS011;18325;52.018;4.726;2024-02-28T14:30:25;22.47;;;12.13;;
31754;SDS011;18325;52.018;4.726;2024-02-28T14:32:51;28.40;;;13.67;;